Kiester, Minnesota
Current Conditions -  °F | °C
As of 4:34 AM on Wednesday 22 Oct 2014 (Local Time) from KAEL Reporting Station
Clear Clear  
Wind Chill:   Ceiling: Unl
Heat Index:   Visibility: 10mi
Dew Point:   Wind: 12mph
Humidity: 87%   Direction: 160°SSE
Pressure: 30.2"   Gusts: 18mph
Location:  43.54°N, 93.71°W
Report Text: KAEL 220934Z AUTO 16010G16KT 10SM CLR 05/03 A3020 RMK AO2
Loading
Personal Weather Stations






























Interactive Weather Map
Tropical Storm Tracking
New forecast layout! Learn more

10-Day Weather Forecast

Advertisements
Track Severe Weather on mobile